Flugplatz Segelflugplatz Riedlingen/Donau (UL)

Hier findest Du alle Informationen zum Flugplatz Segelflugplatz Riedlingen/Donau (UL).

Informationen für Piloten zum Flugplatz Segelflugplatz Riedlingen/Donau

Hier findest Du alle relevanten Informationen, die Du als Pilot benötigst, um Segelflugplatz Riedlingen/Donau anzufliegen.

Flugplatz: Segelflugplatz Riedlingen/Donau ICAO-Code: UL Flugplatz
Frequenz Turm: 129,975 Mhz GAFOR Gebiet: 72
Frequenz Ground: 129,975 Mhz Mogas: nein
Platzrunde: SO 2800 ft Landegebühr: 4,00 €
Platzhöhe: - Sunrise: 03:21 Uhr UTC
Pisten: 04/22 - 600 m x 30 m, GRAS Sunset: 19:28 Uhr UTC

Flugwetter am Flugplatz Segelflugplatz Riedlingen/Donau

Die METAR Information stammen aus EDNY (52.86 km entfernt).

METAR Code:
2022/06/22 12:20
EDNY 221220Z 05007KT 9999 FEW013 21/18 Q1013

Flugschulen am Flugplatz Segelflugplatz Riedlingen/Donau

Am Flugplatz Segelflugplatz Riedlingen/Donau gibt es leider keine Flugschule.

Benachbarte Flugplätze und Flugschulen

Es gibt 23 weitere Flugplätze in einem Umkreis von 50 km um den Flugplatz Segelflugplatz Riedlingen/Donau.

Jetzt anmelden

Passwort vergessen

Umfrage Archiv

Sendet Ihr ADS-B und/oder FLARM?

Ja
83.2 %
Nein
16.8 %
Stimmen: 173 | Diskussion
Anzeige: Roland Aircraft
Statistik Alle Mitglieder

Aktuell sind 39 Besucher online, davon 1 Mitglied und 38 Gäste.


Mitglieder online:
aviatrix 

Anzeige: ULPower Aero Engines Anzeige: Pocket FMS